sensor_id;sensor_type;location;lat;lon;timestamp;P1;durP1;ratioP1;P2;durP2;ratioP2
75593;SDS011;64176;49.156;7.810;2023-04-19T00:00:05;10.43;;;6.93;;
75593;SDS011;64176;49.156;7.810;2023-04-19T00:02:53;12.18;;;7.85;;
75593;SDS011;64176;49.156;7.810;2023-04-19T00:05:40;9.60;;;7.45;;
75593;SDS011;64176;49.156;7.810;2023-04-19T00:08:24;10.18;;;7.50;;
75593;SDS011;64176;49.156;7.810;2023-04-19T00:11:09;11.30;;;7.15;;
75593;SDS011;64176;49.156;7.810;2023-04-19T00:13:53;10.48;;;7.22;;
75593;SDS011;64176;49.156;7.810;2023-04-19T00:16:37;9.63;;;6.95;;
75593;SDS011;64176;49.156;7.810;2023-04-19T00:19:23;9.02;;;7.28;;
75593;SDS011;64176;49.156;7.810;2023-04-19T00:22:08;11.05;;;7.35;;
75593;SDS011;64176;49.156;7.810;2023-04-19T00:24:53;11.75;;;6.63;;
75593;SDS011;64176;49.156;7.810;2023-04-19T00:27:37;8.73;;;6.80;;
75593;SDS011;64176;49.156;7.810;2023-04-19T00:30:22;10.95;;;7.05;;
75593;SDS011;64176;49.156;7.810;2023-04-19T00:33:07;9.27;;;7.55;;
75593;SDS011;64176;49.156;7.810;2023-04-19T00:35:55;10.70;;;6.45;;
75593;SDS011;64176;49.156;7.810;2023-04-19T00:38:39;9.10;;;7.13;;
75593;SDS011;64176;49.156;7.810;2023-04-19T00:41:23;10.30;;;7.47;;
75593;SDS011;64176;49.156;7.810;2023-04-19T00:44:07;10.32;;;7.03;;
75593;SDS011;64176;49.156;7.810;2023-04-19T00:46:54;11.35;;;7.07;;
75593;SDS011;64176;49.156;7.810;2023-04-19T00:49:39;8.60;;;6.85;;
75593;SDS011;64176;49.156;7.810;2023-04-19T00:52:23;9.93;;;6.82;;
75593;SDS011;64176;49.156;7.810;2023-04-19T00:55:13;8.90;;;7.00;;
75593;SDS011;64176;49.156;7.810;2023-04-19T00:57:58;9.30;;;6.97;;
75593;SDS011;64176;49.156;7.810;2023-04-19T01:00:43;9.02;;;6.40;;
75593;SDS011;64176;49.156;7.810;2023-04-19T01:03:27;10.32;;;7.20;;
75593;SDS011;64176;49.156;7.810;2023-04-19T01:06:11;9.18;;;6.07;;
75593;SDS011;64176;49.156;7.810;2023-04-19T01:08:58;9.02;;;7.03;;
75593;SDS011;64176;49.156;7.810;2023-04-19T01:11:47;10.38;;;6.38;;
75593;SDS011;64176;49.156;7.810;2023-04-19T01:14:32;7.10;;;5.82;;
75593;SDS011;64176;49.156;7.810;2023-04-19T01:17:16;9.27;;;7.05;;
75593;SDS011;64176;49.156;7.810;2023-04-19T01:20:02;9.77;;;7.50;;
75593;SDS011;64176;49.156;7.810;2023-04-19T01:22:50;11.00;;;7.03;;
75593;SDS011;64176;49.156;7.810;2023-04-19T01:25:34;11.10;;;7.30;;
75593;SDS011;64176;49.156;7.810;2023-04-19T01:28:19;11.77;;;7.78;;
75593;SDS011;64176;49.156;7.810;2023-04-19T01:31:03;11.80;;;6.88;;
75593;SDS011;64176;49.156;7.810;2023-04-19T01:33:47;8.82;;;6.10;;
75593;SDS011;64176;49.156;7.810;2023-04-19T01:36:36;7.53;;;5.63;;
75593;SDS011;64176;49.156;7.810;2023-04-19T01:39:24;9.40;;;6.82;;
75593;SDS011;64176;49.156;7.810;2023-04-19T01:42:09;9.98;;;6.50;;
75593;SDS011;64176;49.156;7.810;2023-04-19T01:44:54;10.40;;;7.05;;
75593;SDS011;64176;49.156;7.810;2023-04-19T01:47:38;12.02;;;6.38;;
75593;SDS011;64176;49.156;7.810;2023-04-19T01:50:24;9.05;;;5.97;;
75593;SDS011;64176;49.156;7.810;2023-04-19T01:53:08;9.50;;;6.65;;
75593;SDS011;64176;49.156;7.810;2023-04-19T01:55:53;9.45;;;7.32;;
75593;SDS011;64176;49.156;7.810;2023-04-19T01:58:37;11.25;;;6.90;;
75593;SDS011;64176;49.156;7.810;2023-04-19T02:01:21;8.48;;;6.32;;
75593;SDS011;64176;49.156;7.810;2023-04-19T02:04:05;9.50;;;6.60;;
75593;SDS011;64176;49.156;7.810;2023-04-19T02:06:53;9.00;;;6.82;;
75593;SDS011;64176;49.156;7.810;2023-04-19T02:09:37;11.40;;;7.32;;
75593;SDS011;64176;49.156;7.810;2023-04-19T02:12:22;8.40;;;6.90;;
75593;SDS011;64176;49.156;7.810;2023-04-19T02:15:06;8.93;;;5.82;;
75593;SDS011;64176;49.156;7.810;2023-04-19T02:17:52;9.02;;;6.90;;
75593;SDS011;64176;49.156;7.810;2023-04-19T02:20:36;9.73;;;6.90;;
75593;SDS011;64176;49.156;7.810;2023-04-19T02:23:21;9.57;;;6.68;;
75593;SDS011;64176;49.156;7.810;2023-04-19T02:26:05;10.13;;;6.68;;
75593;SDS011;64176;49.156;7.810;2023-04-19T02:28:52;9.13;;;6.55;;
75593;SDS011;64176;49.156;7.810;2023-04-19T02:31:36;9.55;;;6.97;;
75593;SDS011;64176;49.156;7.810;2023-04-19T02:34:19;10.38;;;6.53;;
75593;SDS011;64176;49.156;7.810;2023-04-19T02:37:03;9.90;;;6.50;;
75593;SDS011;64176;49.156;7.810;2023-04-19T02:39:48;11.30;;;7.47;;
75593;SDS011;64176;49.156;7.810;2023-04-19T02:42:32;7.97;;;6.18;;
75593;SDS011;64176;49.156;7.810;2023-04-19T02:45:16;10.68;;;6.57;;
75593;SDS011;64176;49.156;7.810;2023-04-19T02:48:03;8.95;;;6.63;;
75593;SDS011;64176;49.156;7.810;2023-04-19T02:50:48;7.57;;;6.07;;
75593;SDS011;64176;49.156;7.810;2023-04-19T02:53:32;8.70;;;6.70;;
75593;SDS011;64176;49.156;7.810;2023-04-19T02:56:16;8.35;;;6.07;;
75593;SDS011;64176;49.156;7.810;2023-04-19T02:59:00;8.63;;;6.25;;
75593;SDS011;64176;49.156;7.810;2023-04-19T03:01:45;8.80;;;5.70;;
75593;SDS011;64176;49.156;7.810;2023-04-19T03:04:30;9.25;;;6.88;;
75593;SDS011;64176;49.156;7.810;2023-04-19T03:07:17;10.35;;;6.32;;
75593;SDS011;64176;49.156;7.810;2023-04-19T03:10:02;8.45;;;5.72;;
75593;SDS011;64176;49.156;7.810;2023-04-19T03:12:48;11.25;;;7.32;;
75593;SDS011;64176;49.156;7.810;2023-04-19T03:15:33;10.15;;;7.35;;
75593;SDS011;64176;49.156;7.810;2023-04-19T03:18:19;9.18;;;6.70;;
75593;SDS011;64176;49.156;7.810;2023-04-19T03:21:03;10.82;;;6.45;;
75593;SDS011;64176;49.156;7.810;2023-04-19T03:23:56;10.02;;;6.65;;
75593;SDS011;64176;49.156;7.810;2023-04-19T03:26:42;10.45;;;6.93;;
75593;SDS011;64176;49.156;7.810;2023-04-19T03:29:28;8.95;;;6.50;;
75593;SDS011;64176;49.156;7.810;2023-04-19T03:32:19;8.82;;;6.78;;
75593;SDS011;64176;49.156;7.810;2023-04-19T03:35:03;12.18;;;7.68;;
75593;SDS011;64176;49.156;7.810;2023-04-19T03:37:48;9.50;;;6.30;;
75593;SDS011;64176;49.156;7.810;2023-04-19T03:40:32;10.93;;;7.40;;
75593;SDS011;64176;49.156;7.810;2023-04-19T03:43:17;10.73;;;7.90;;
75593;SDS011;64176;49.156;7.810;2023-04-19T03:46:05;9.40;;;7.05;;
75593;SDS011;64176;49.156;7.810;2023-04-19T03:48:49;9.13;;;7.47;;
75593;SDS011;64176;49.156;7.810;2023-04-19T03:51:36;10.82;;;6.40;;
75593;SDS011;64176;49.156;7.810;2023-04-19T03:54:20;10.68;;;7.97;;
75593;SDS011;64176;49.156;7.810;2023-04-19T03:57:04;11.13;;;7.43;;
75593;SDS011;64176;49.156;7.810;2023-04-19T03:59:50;10.20;;;6.82;;
75593;SDS011;64176;49.156;7.810;2023-04-19T04:02:36;8.63;;;6.72;;
75593;SDS011;64176;49.156;7.810;2023-04-19T04:05:22;8.80;;;6.65;;
75593;SDS011;64176;49.156;7.810;2023-04-19T04:08:09;10.90;;;6.70;;
75593;SDS011;64176;49.156;7.810;2023-04-19T04:10:56;9.55;;;6.30;;
75593;SDS011;64176;49.156;7.810;2023-04-19T04:13:40;7.72;;;5.18;;
75593;SDS011;64176;49.156;7.810;2023-04-19T04:16:34;8.77;;;7.00;;
75593;SDS011;64176;49.156;7.810;2023-04-19T04:19:18;11.23;;;8.38;;
75593;SDS011;64176;49.156;7.810;2023-04-19T04:22:05;8.45;;;6.60;;
75593;SDS011;64176;49.156;7.810;2023-04-19T04:24:53;8.65;;;6.13;;
75593;SDS011;64176;49.156;7.810;2023-04-19T04:27:44;10.18;;;6.45;;
75593;SDS011;64176;49.156;7.810;2023-04-19T04:30:32;10.15;;;6.55;;
75593;SDS011;64176;49.156;7.810;2023-04-19T04:36:04;8.95;;;7.22;;
75593;SDS011;64176;49.156;7.810;2023-04-19T04:38:51;10.15;;;6.88;;
75593;SDS011;64176;49.156;7.810;2023-04-19T04:44:25;9.93;;;7.18;;
75593;SDS011;64176;49.156;7.810;2023-04-19T04:47:11;7.72;;;6.07;;
75593;SDS011;64176;49.156;7.810;2023-04-19T04:50:02;8.63;;;6.35;;
75593;SDS011;64176;49.156;7.810;2023-04-19T04:52:48;7.95;;;6.00;;
75593;SDS011;64176;49.156;7.810;2023-04-19T04:55:40;7.53;;;5.63;;
75593;SDS011;64176;49.156;7.810;2023-04-19T04:58:24;8.38;;;5.50;;
75593;SDS011;64176;49.156;7.810;2023-04-19T05:01:16;9.57;;;6.22;;
75593;SDS011;64176;49.156;7.810;2023-04-19T05:04:02;8.73;;;6.22;;
75593;SDS011;64176;49.156;7.810;2023-04-19T05:06:46;9.63;;;6.45;;
75593;SDS011;64176;49.156;7.810;2023-04-19T05:09:36;8.50;;;6.28;;
75593;SDS011;64176;49.156;7.810;2023-04-19T05:12:21;9.90;;;6.45;;
75593;SDS011;64176;49.156;7.810;2023-04-19T05:15:05;13.60;;;7.10;;
75593;SDS011;64176;49.156;7.810;2023-04-19T05:17:54;9.10;;;5.93;;
75593;SDS011;64176;49.156;7.810;2023-04-19T05:20:39;6.97;;;5.93;;
75593;SDS011;64176;49.156;7.810;2023-04-19T05:23:31;8.15;;;6.72;;
75593;SDS011;64176;49.156;7.810;2023-04-19T05:26:15;7.85;;;5.13;;
75593;SDS011;64176;49.156;7.810;2023-04-19T05:29:03;9.40;;;6.57;;
75593;SDS011;64176;49.156;7.810;2023-04-19T05:31:57;8.80;;;6.90;;
75593;SDS011;64176;49.156;7.810;2023-04-19T05:34:45;8.85;;;5.90;;
75593;SDS011;64176;49.156;7.810;2023-04-19T05:37:32;6.65;;;4.95;;
75593;SDS011;64176;49.156;7.810;2023-04-19T05:40:16;8.07;;;5.55;;
75593;SDS011;64176;49.156;7.810;2023-04-19T05:43:02;7.90;;;5.97;;
75593;SDS011;64176;49.156;7.810;2023-04-19T05:45:46;9.02;;;5.85;;
75593;SDS011;64176;49.156;7.810;2023-04-19T05:48:30;8.15;;;6.30;;
75593;SDS011;64176;49.156;7.810;2023-04-19T05:51:36;8.10;;;6.40;;
75593;SDS011;64176;49.156;7.810;2023-04-19T05:54:40;10.55;;;6.97;;
75593;SDS011;64176;49.156;7.810;2023-04-19T05:57:28;8.20;;;5.88;;
75593;SDS011;64176;49.156;7.810;2023-04-19T06:00:12;8.27;;;5.82;;
75593;SDS011;64176;49.156;7.810;2023-04-19T06:03:07;8.02;;;5.90;;
75593;SDS011;64176;49.156;7.810;2023-04-19T06:05:54;8.88;;;6.50;;
75593;SDS011;64176;49.156;7.810;2023-04-19T06:08:38;9.27;;;6.05;;
75593;SDS011;64176;49.156;7.810;2023-04-19T06:11:22;8.13;;;6.20;;
75593;SDS011;64176;49.156;7.810;2023-04-19T06:14:11;7.93;;;6.28;;
75593;SDS011;64176;49.156;7.810;2023-04-19T06:16:56;10.82;;;7.32;;
75593;SDS011;64176;49.156;7.810;2023-04-19T06:19:43;8.85;;;6.90;;
75593;SDS011;64176;49.156;7.810;2023-04-19T06:22:27;9.73;;;6.63;;
75593;SDS011;64176;49.156;7.810;2023-04-19T06:25:11;7.78;;;5.60;;
75593;SDS011;64176;49.156;7.810;2023-04-19T06:27:54;8.25;;;6.47;;
75593;SDS011;64176;49.156;7.810;2023-04-19T06:30:38;9.25;;;6.47;;
75593;SDS011;64176;49.156;7.810;2023-04-19T06:33:22;10.07;;;6.40;;
75593;SDS011;64176;49.156;7.810;2023-04-19T06:36:06;9.00;;;6.45;;
75593;SDS011;64176;49.156;7.810;2023-04-19T06:38:51;8.23;;;5.15;;
75593;SDS011;64176;49.156;7.810;2023-04-19T06:41:38;9.13;;;7.32;;
75593;SDS011;64176;49.156;7.810;2023-04-19T06:44:25;10.35;;;6.65;;
75593;SDS011;64176;49.156;7.810;2023-04-19T06:47:09;10.52;;;7.40;;
75593;SDS011;64176;49.156;7.810;2023-04-19T06:49:53;7.75;;;5.68;;
75593;SDS011;64176;49.156;7.810;2023-04-19T06:52:38;7.95;;;5.93;;
75593;SDS011;64176;49.156;7.810;2023-04-19T06:55:22;8.40;;;6.57;;
75593;SDS011;64176;49.156;7.810;2023-04-19T06:58:06;9.10;;;5.38;;
75593;SDS011;64176;49.156;7.810;2023-04-19T07:00:53;9.50;;;6.95;;
75593;SDS011;64176;49.156;7.810;2023-04-19T07:03:40;11.73;;;7.38;;
75593;SDS011;64176;49.156;7.810;2023-04-19T07:06:23;9.43;;;6.40;;
75593;SDS011;64176;49.156;7.810;2023-04-19T07:09:07;8.98;;;7.13;;
75593;SDS011;64176;49.156;7.810;2023-04-19T07:11:52;20.65;;;15.85;;
75593;SDS011;64176;49.156;7.810;2023-04-19T07:17:22;8.98;;;6.57;;
75593;SDS011;64176;49.156;7.810;2023-04-19T07:20:06;10.55;;;5.90;;
75593;SDS011;64176;49.156;7.810;2023-04-19T07:22:53;9.07;;;6.35;;
75593;SDS011;64176;49.156;7.810;2023-04-19T07:25:40;8.70;;;7.22;;
75593;SDS011;64176;49.156;7.810;2023-04-19T07:28:24;9.90;;;6.78;;
75593;SDS011;64176;49.156;7.810;2023-04-19T07:31:14;9.02;;;5.50;;
75593;SDS011;64176;49.156;7.810;2023-04-19T07:33:59;9.98;;;6.65;;
75593;SDS011;64176;49.156;7.810;2023-04-19T07:36:45;11.15;;;6.75;;
75593;SDS011;64176;49.156;7.810;2023-04-19T07:39:29;9.25;;;6.45;;
75593;SDS011;64176;49.156;7.810;2023-04-19T07:42:15;10.95;;;8.52;;
75593;SDS011;64176;49.156;7.810;2023-04-19T07:44:59;8.00;;;6.43;;
75593;SDS011;64176;49.156;7.810;2023-04-19T07:47:48;8.48;;;5.85;;
75593;SDS011;64176;49.156;7.810;2023-04-19T07:50:35;9.65;;;6.35;;
75593;SDS011;64176;49.156;7.810;2023-04-19T07:53:20;11.57;;;6.65;;
75593;SDS011;64176;49.156;7.810;2023-04-19T07:56:03;7.55;;;5.80;;
75593;SDS011;64176;49.156;7.810;2023-04-19T07:58:51;9.15;;;7.13;;
75593;SDS011;64176;49.156;7.810;2023-04-19T08:01:35;9.50;;;6.57;;
75593;SDS011;64176;49.156;7.810;2023-04-19T08:04:19;9.45;;;6.13;;
75593;SDS011;64176;49.156;7.810;2023-04-19T08:07:05;9.05;;;7.00;;
75593;SDS011;64176;49.156;7.810;2023-04-19T08:09:49;7.10;;;4.90;;
75593;SDS011;64176;49.156;7.810;2023-04-19T08:12:36;9.45;;;6.53;;
75593;SDS011;64176;49.156;7.810;2023-04-19T08:15:20;8.30;;;5.40;;
75593;SDS011;64176;49.156;7.810;2023-04-19T08:20:51;8.98;;;6.80;;
75593;SDS011;64176;49.156;7.810;2023-04-19T08:23:35;8.15;;;5.20;;
75593;SDS011;64176;49.156;7.810;2023-04-19T08:26:19;9.93;;;6.15;;
75593;SDS011;64176;49.156;7.810;2023-04-19T08:29:03;7.55;;;5.68;;
75593;SDS011;64176;49.156;7.810;2023-04-19T08:31:49;10.02;;;6.20;;
75593;SDS011;64176;49.156;7.810;2023-04-19T08:34:36;8.90;;;5.60;;
75593;SDS011;64176;49.156;7.810;2023-04-19T08:37:23;8.57;;;5.57;;
75593;SDS011;64176;49.156;7.810;2023-04-19T08:40:10;10.98;;;6.50;;
75593;SDS011;64176;49.156;7.810;2023-04-19T08:42:55;9.13;;;5.00;;
75593;SDS011;64176;49.156;7.810;2023-04-19T08:45:42;9.73;;;5.72;;
75593;SDS011;64176;49.156;7.810;2023-04-19T08:48:29;11.10;;;6.70;;
75593;SDS011;64176;49.156;7.810;2023-04-19T08:51:17;7.93;;;5.38;;
75593;SDS011;64176;49.156;7.810;2023-04-19T08:54:05;7.65;;;5.97;;
75593;SDS011;64176;49.156;7.810;2023-04-19T08:56:51;9.77;;;5.53;;
75593;SDS011;64176;49.156;7.810;2023-04-19T08:59:36;8.07;;;7.22;;
75593;SDS011;64176;49.156;7.810;2023-04-19T09:02:20;6.97;;;5.38;;
75593;SDS011;64176;49.156;7.810;2023-04-19T09:05:05;7.65;;;6.50;;
75593;SDS011;64176;49.156;7.810;2023-04-19T09:07:50;10.82;;;6.82;;
75593;SDS011;64176;49.156;7.810;2023-04-19T09:10:36;7.13;;;4.95;;
75593;SDS011;64176;49.156;7.810;2023-04-19T09:13:35;7.15;;;5.90;;
75593;SDS011;64176;49.156;7.810;2023-04-19T09:16:24;7.22;;;5.82;;
75593;SDS011;64176;49.156;7.810;2023-04-19T09:19:10;7.20;;;5.35;;
75593;SDS011;64176;49.156;7.810;2023-04-19T09:21:57;7.97;;;6.10;;
75593;SDS011;64176;49.156;7.810;2023-04-19T09:24:55;8.43;;;5.43;;
75593;SDS011;64176;49.156;7.810;2023-04-19T09:27:39;8.95;;;5.88;;
75593;SDS011;64176;49.156;7.810;2023-04-19T09:30:23;7.72;;;5.25;;
75593;SDS011;64176;49.156;7.810;2023-04-19T09:33:08;9.70;;;5.85;;
75593;SDS011;64176;49.156;7.810;2023-04-19T09:35:54;9.45;;;6.05;;
75593;SDS011;64176;49.156;7.810;2023-04-19T09:38:48;9.00;;;5.80;;
75593;SDS011;64176;49.156;7.810;2023-04-19T09:41:48;7.25;;;5.30;;
75593;SDS011;64176;49.156;7.810;2023-04-19T09:44:34;9.30;;;5.95;;
75593;SDS011;64176;49.156;7.810;2023-04-19T09:47:23;13.07;;;5.47;;
75593;SDS011;64176;49.156;7.810;2023-04-19T09:50:08;8.40;;;5.45;;
75593;SDS011;64176;49.156;7.810;2023-04-19T09:52:56;6.22;;;4.95;;
75593;SDS011;64176;49.156;7.810;2023-04-19T09:55:40;6.47;;;4.60;;
75593;SDS011;64176;49.156;7.810;2023-04-19T09:58:26;6.90;;;4.47;;
75593;SDS011;64176;49.156;7.810;2023-04-19T10:01:13;6.07;;;4.97;;
75593;SDS011;64176;49.156;7.810;2023-04-19T10:03:58;6.05;;;4.85;;
75593;SDS011;64176;49.156;7.810;2023-04-19T10:06:43;6.70;;;5.18;;
75593;SDS011;64176;49.156;7.810;2023-04-19T10:09:27;6.75;;;5.10;;
75593;SDS011;64176;49.156;7.810;2023-04-19T10:12:12;6.85;;;4.97;;
75593;SDS011;64176;49.156;7.810;2023-04-19T10:14:58;8.73;;;4.53;;
75593;SDS011;64176;49.156;7.810;2023-04-19T10:17:42;7.22;;;5.60;;
75593;SDS011;64176;49.156;7.810;2023-04-19T10:20:31;6.35;;;5.43;;
75593;SDS011;64176;49.156;7.810;2023-04-19T10:23:20;8.77;;;4.53;;
75593;SDS011;64176;49.156;7.810;2023-04-19T10:26:05;8.05;;;4.30;;
75593;SDS011;64176;49.156;7.810;2023-04-19T10:28:50;6.35;;;4.72;;
75593;SDS011;64176;49.156;7.810;2023-04-19T10:31:34;6.78;;;4.80;;
75593;SDS011;64176;49.156;7.810;2023-04-19T10:34:38;6.03;;;4.47;;
75593;SDS011;64176;49.156;7.810;2023-04-19T10:37:23;7.95;;;5.00;;
75593;SDS011;64176;49.156;7.810;2023-04-19T10:40:09;6.68;;;5.13;;
75593;SDS011;64176;49.156;7.810;2023-04-19T10:45:59;7.85;;;5.45;;
75593;SDS011;64176;49.156;7.810;2023-04-19T10:48:49;8.05;;;5.65;;
75593;SDS011;64176;49.156;7.810;2023-04-19T10:51:38;7.85;;;6.10;;
75593;SDS011;64176;49.156;7.810;2023-04-19T10:57:18;7.78;;;5.07;;
75593;SDS011;64176;49.156;7.810;2023-04-19T11:00:18;7.15;;;6.40;;
75593;SDS011;64176;49.156;7.810;2023-04-19T11:06:29;9.77;;;7.25;;
75593;SDS011;64176;49.156;7.810;2023-04-19T11:09:20;11.45;;;7.72;;
75593;SDS011;64176;49.156;7.810;2023-04-19T11:14:57;11.63;;;7.68;;
75593;SDS011;64176;49.156;7.810;2023-04-19T11:17:42;12.25;;;7.53;;
75593;SDS011;64176;49.156;7.810;2023-04-19T11:20:26;9.82;;;7.40;;
75593;SDS011;64176;49.156;7.810;2023-04-19T11:23:17;14.07;;;10.15;;
75593;SDS011;64176;49.156;7.810;2023-04-19T11:26:02;8.93;;;6.18;;
75593;SDS011;64176;49.156;7.810;2023-04-19T11:28:46;9.68;;;7.57;;
75593;SDS011;64176;49.156;7.810;2023-04-19T11:31:33;6.80;;;4.93;;
75593;SDS011;64176;49.156;7.810;2023-04-19T11:34:20;10.32;;;6.50;;
75593;SDS011;64176;49.156;7.810;2023-04-19T11:37:06;8.27;;;5.75;;
75593;SDS011;64176;49.156;7.810;2023-04-19T11:39:51;9.77;;;5.90;;
75593;SDS011;64176;49.156;7.810;2023-04-19T11:42:35;8.35;;;5.85;;
75593;SDS011;64176;49.156;7.810;2023-04-19T11:45:29;7.53;;;6.60;;
75593;SDS011;64176;49.156;7.810;2023-04-19T11:48:17;10.88;;;8.43;;
75593;SDS011;64176;49.156;7.810;2023-04-19T11:51:04;5.97;;;4.65;;
75593;SDS011;64176;49.156;7.810;2023-04-19T11:53:48;6.30;;;5.65;;
75593;SDS011;64176;49.156;7.810;2023-04-19T11:56:32;8.45;;;6.93;;
75593;SDS011;64176;49.156;7.810;2023-04-19T11:59:18;5.47;;;4.32;;
75593;SDS011;64176;49.156;7.810;2023-04-19T12:02:09;6.85;;;4.75;;
75593;SDS011;64176;49.156;7.810;2023-04-19T12:05:05;8.65;;;6.03;;
75593;SDS011;64176;49.156;7.810;2023-04-19T12:08:01;8.10;;;5.28;;
75593;SDS011;64176;49.156;7.810;2023-04-19T12:10:56;8.35;;;5.97;;
75593;SDS011;64176;49.156;7.810;2023-04-19T12:13:42;9.68;;;5.60;;
75593;SDS011;64176;49.156;7.810;2023-04-19T12:16:27;9.60;;;5.40;;
75593;SDS011;64176;49.156;7.810;2023-04-19T12:19:15;8.30;;;5.57;;
75593;SDS011;64176;49.156;7.810;2023-04-19T12:22:07;9.07;;;5.88;;
75593;SDS011;64176;49.156;7.810;2023-04-19T12:24:52;7.43;;;6.00;;
75593;SDS011;64176;49.156;7.810;2023-04-19T12:27:39;12.30;;;6.35;;
75593;SDS011;64176;49.156;7.810;2023-04-19T12:30:25;7.60;;;6.55;;
75593;SDS011;64176;49.156;7.810;2023-04-19T12:33:12;7.45;;;5.03;;
75593;SDS011;64176;49.156;7.810;2023-04-19T12:35:58;7.30;;;6.18;;
75593;SDS011;64176;49.156;7.810;2023-04-19T12:38:42;9.98;;;6.45;;
75593;SDS011;64176;49.156;7.810;2023-04-19T12:41:26;10.30;;;6.45;;
75593;SDS011;64176;49.156;7.810;2023-04-19T12:44:10;10.45;;;6.50;;
75593;SDS011;64176;49.156;7.810;2023-04-19T12:46:55;13.27;;;7.63;;
75593;SDS011;64176;49.156;7.810;2023-04-19T12:49:40;14.25;;;9.73;;
75593;SDS011;64176;49.156;7.810;2023-04-19T12:52:24;11.48;;;8.18;;
75593;SDS011;64176;49.156;7.810;2023-04-19T12:55:10;9.40;;;6.95;;
75593;SDS011;64176;49.156;7.810;2023-04-19T12:57:54;7.53;;;5.30;;
75593;SDS011;64176;49.156;7.810;2023-04-19T13:00:41;8.65;;;6.25;;
75593;SDS011;64176;49.156;7.810;2023-04-19T13:03:28;9.65;;;6.50;;
75593;SDS011;64176;49.156;7.810;2023-04-19T13:06:15;7.93;;;5.50;;
75593;SDS011;64176;49.156;7.810;2023-04-19T13:09:02;6.72;;;4.47;;
75593;SDS011;64176;49.156;7.810;2023-04-19T13:11:46;7.00;;;5.40;;
75593;SDS011;64176;49.156;7.810;2023-04-19T13:14:30;8.63;;;5.60;;
75593;SDS011;64176;49.156;7.810;2023-04-19T13:17:18;9.45;;;4.78;;
75593;SDS011;64176;49.156;7.810;2023-04-19T13:20:02;8.85;;;6.32;;
75593;SDS011;64176;49.156;7.810;2023-04-19T13:25:33;5.82;;;5.00;;
75593;SDS011;64176;49.156;7.810;2023-04-19T13:28:16;5.38;;;4.82;;
75593;SDS011;64176;49.156;7.810;2023-04-19T13:31:01;6.22;;;4.95;;
75593;SDS011;64176;49.156;7.810;2023-04-19T13:33:48;7.20;;;5.28;;
75593;SDS011;64176;49.156;7.810;2023-04-19T13:36:32;8.27;;;4.72;;
75593;SDS011;64176;49.156;7.810;2023-04-19T13:39:16;7.03;;;5.50;;
75593;SDS011;64176;49.156;7.810;2023-04-19T13:41:59;5.97;;;4.35;;
75593;SDS011;64176;49.156;7.810;2023-04-19T13:44:44;8.07;;;4.40;;
75593;SDS011;64176;49.156;7.810;2023-04-19T13:47:28;5.20;;;4.00;;
75593;SDS011;64176;49.156;7.810;2023-04-19T13:50:12;7.90;;;4.55;;
75593;SDS011;64176;49.156;7.810;2023-04-19T13:52:59;6.95;;;5.50;;
75593;SDS011;64176;49.156;7.810;2023-04-19T13:55:42;6.75;;;5.18;;
75593;SDS011;64176;49.156;7.810;2023-04-19T13:58:26;8.45;;;6.03;;
75593;SDS011;64176;49.156;7.810;2023-04-19T14:01:10;6.18;;;4.10;;
75593;SDS011;64176;49.156;7.810;2023-04-19T14:03:55;5.07;;;4.40;;
75593;SDS011;64176;49.156;7.810;2023-04-19T14:06:41;5.90;;;4.22;;
75593;SDS011;64176;49.156;7.810;2023-04-19T14:09:28;6.18;;;4.55;;
75593;SDS011;64176;49.156;7.810;2023-04-19T14:12:12;6.35;;;3.88;;
75593;SDS011;64176;49.156;7.810;2023-04-19T14:14:56;4.25;;;3.83;;
75593;SDS011;64176;49.156;7.810;2023-04-19T14:17:40;6.00;;;3.17;;
75593;SDS011;64176;49.156;7.810;2023-04-19T14:20:24;6.32;;;2.80;;
75593;SDS011;64176;49.156;7.810;2023-04-19T14:23:13;4.88;;;3.15;;
75593;SDS011;64176;49.156;7.810;2023-04-19T14:25:57;5.88;;;3.83;;
75593;SDS011;64176;49.156;7.810;2023-04-19T14:28:41;5.13;;;3.00;;
75593;SDS011;64176;49.156;7.810;2023-04-19T14:31:25;3.92;;;2.90;;
75593;SDS011;64176;49.156;7.810;2023-04-19T14:34:09;5.35;;;3.08;;
75593;SDS011;64176;49.156;7.810;2023-04-19T14:36:53;4.57;;;2.83;;
75593;SDS011;64176;49.156;7.810;2023-04-19T14:39:37;3.60;;;2.90;;
75593;SDS011;64176;49.156;7.810;2023-04-19T14:42:23;4.43;;;2.80;;
75593;SDS011;64176;49.156;7.810;2023-04-19T14:45:07;3.63;;;2.85;;
75593;SDS011;64176;49.156;7.810;2023-04-19T14:47:54;4.78;;;2.10;;
75593;SDS011;64176;49.156;7.810;2023-04-19T14:50:39;2.47;;;2.28;;
75593;SDS011;64176;49.156;7.810;2023-04-19T14:53:22;2.75;;;2.17;;
75593;SDS011;64176;49.156;7.810;2023-04-19T14:56:07;9.68;;;6.95;;
75593;SDS011;64176;49.156;7.810;2023-04-19T14:58:51;3.83;;;2.67;;
75593;SDS011;64176;49.156;7.810;2023-04-19T15:01:36;5.68;;;3.13;;
75593;SDS011;64176;49.156;7.810;2023-04-19T15:04:22;4.75;;;2.88;;
75593;SDS011;64176;49.156;7.810;2023-04-19T15:07:13;3.13;;;2.53;;
75593;SDS011;64176;49.156;7.810;2023-04-19T15:09:57;6.18;;;3.72;;
75593;SDS011;64176;49.156;7.810;2023-04-19T15:12:41;4.05;;;3.42;;
75593;SDS011;64176;49.156;7.810;2023-04-19T15:15:27;5.30;;;3.33;;
75593;SDS011;64176;49.156;7.810;2023-04-19T15:18:11;5.00;;;2.90;;
75593;SDS011;64176;49.156;7.810;2023-04-19T15:20:58;5.22;;;3.13;;
75593;SDS011;64176;49.156;7.810;2023-04-19T15:26:26;3.58;;;2.60;;
75593;SDS011;64176;49.156;7.810;2023-04-19T15:29:10;4.50;;;2.60;;
75593;SDS011;64176;49.156;7.810;2023-04-19T15:31:53;5.05;;;3.03;;
75593;SDS011;64176;49.156;7.810;2023-04-19T15:34:38;4.25;;;2.67;;
75593;SDS011;64176;49.156;7.810;2023-04-19T15:37:22;5.93;;;3.05;;
75593;SDS011;64176;49.156;7.810;2023-04-19T15:40:10;2.55;;;1.70;;
75593;SDS011;64176;49.156;7.810;2023-04-19T15:42:57;4.00;;;2.92;;
75593;SDS011;64176;49.156;7.810;2023-04-19T15:45:41;4.28;;;2.00;;
75593;SDS011;64176;49.156;7.810;2023-04-19T15:48:30;4.07;;;2.50;;
75593;SDS011;64176;49.156;7.810;2023-04-19T15:51:16;3.05;;;1.85;;
75593;SDS011;64176;49.156;7.810;2023-04-19T15:54:00;6.88;;;1.77;;
75593;SDS011;64176;49.156;7.810;2023-04-19T15:56:44;1.92;;;1.67;;
75593;SDS011;64176;49.156;7.810;2023-04-19T15:59:28;2.92;;;2.03;;
75593;SDS011;64176;49.156;7.810;2023-04-19T16:02:13;4.22;;;2.50;;
75593;SDS011;64176;49.156;7.810;2023-04-19T16:05:00;4.22;;;2.20;;
75593;SDS011;64176;49.156;7.810;2023-04-19T16:07:46;3.42;;;1.42;;
75593;SDS011;64176;49.156;7.810;2023-04-19T16:10:33;2.20;;;1.90;;
75593;SDS011;64176;49.156;7.810;2023-04-19T16:13:23;4.28;;;2.00;;
75593;SDS011;64176;49.156;7.810;2023-04-19T16:16:07;3.40;;;1.48;;
75593;SDS011;64176;49.156;7.810;2023-04-19T16:18:51;3.88;;;2.35;;
75593;SDS011;64176;49.156;7.810;2023-04-19T16:21:35;2.67;;;1.30;;
75593;SDS011;64176;49.156;7.810;2023-04-19T16:27:06;2.65;;;1.40;;
75593;SDS011;64176;49.156;7.810;2023-04-19T16:29:50;5.50;;;1.73;;
75593;SDS011;64176;49.156;7.810;2023-04-19T16:32:36;2.45;;;2.25;;
75593;SDS011;64176;49.156;7.810;2023-04-19T16:35:21;1.75;;;1.42;;
75593;SDS011;64176;49.156;7.810;2023-04-19T16:38:06;5.78;;;1.83;;
75593;SDS011;64176;49.156;7.810;2023-04-19T16:40:50;5.82;;;1.35;;
75593;SDS011;64176;49.156;7.810;2023-04-19T16:43:34;3.47;;;2.10;;
75593;SDS011;64176;49.156;7.810;2023-04-19T16:46:21;5.88;;;1.70;;
75593;SDS011;64176;49.156;7.810;2023-04-19T16:49:05;3.38;;;2.05;;
75593;SDS011;64176;49.156;7.810;2023-04-19T16:51:49;2.20;;;1.70;;
75593;SDS011;64176;49.156;7.810;2023-04-19T16:54:34;3.60;;;1.75;;
75593;SDS011;64176;49.156;7.810;2023-04-19T16:57:18;3.10;;;1.85;;
75593;SDS011;64176;49.156;7.810;2023-04-19T17:00:03;3.83;;;2.20;;
75593;SDS011;64176;49.156;7.810;2023-04-19T17:02:51;3.58;;;1.63;;
75593;SDS011;64176;49.156;7.810;2023-04-19T17:05:36;3.17;;;1.73;;
75593;SDS011;64176;49.156;7.810;2023-04-19T17:08:20;2.55;;;1.35;;